Tiempo atmosférico en la estación meteorológica de Aldeanueva de Serrezuela, Segovia (1135 m.)



Fecha
DESCASC
Temp. máxima en grados centígrados (hora)
DESCASC
Temp. mínima en grados centígrados (hora)
DESCASC
Temp. media en grados centígrados
DESCASC
Racha de viento máxima en m/sg (hora)
DESCASC
Velocidad máxima media en intervalos de 10 minutos(hora)
DESCASC
Precipitaciones diarias en mm
DESCASC
Precipitaciones de 00:00 a 06:00 en mm
DESCASC
Precipitaciones de 06:00 a 12:00 en mm
DESCASC
Precipitaciones de 12:00 a 18:00 en mm
DESCASC
Precipitaciones de 18:00 a 24:00 en mm
DESCASC
27-01-2020 8 (15:40) 2.8 (06:30) 5.4 19.17 (16:30) 13.06 (16:30) 0.4 0 0 0.4 0
26-01-2020 6.8 (15:20) 1.9 (08:10) 4.4 9.17 (14:20) 6.39 (14:20) 0 0 0 0 0
25-01-2020 7.9 (14:10) 2.6 (00:00) 5.3 7.22 (11:30) 4.17 (02:20) 3 0 0.2 0 2.8
24-01-2020 7.2 (14:00) 2.8 (00:00) 5 13.89 (11:30) 9.17 (11:30) 0 0 0 0 0
23-01-2020 8.2 (13:20) -0.5 (-00:0) 3.8 9.17 (01:50) 6.11 (03:00) 0 0 0 0 0
22-01-2020 5.4 (13:50) 0.7 (00:00) 3.1 16.94 (04:50) 11.39 (04:00) 0.6 0.6 0 0 0
21-01-2020 3.6 (20:10) -3.5 (-00:0) 0 18.33 (22:50) 11.11 (23:10) 2 0 0 1.2 0.8
20-01-2020 0.9 (15:00) -5.2 (-00:0) -2.1 11.67 (00:10) 7.5 (00:10) 0 0 0 0 0
19-01-2020 3.3 (14:10) -2.3 (-00:0) 0.5 22.22 (10:30) 13.33 (10:30) 0.2 0.2 0 0 0
18-01-2020 8.7 (17:40) 2.1 (00:00) 5.4 21.67 (19:30) 13.33 (19:30) 7.4 0 0 0.4 7
17-01-2020 6.7 (16:50) 2.2 (00:00) 4.4 13.33 (13:20) 10 (13:20) 1.6 0.2 1.4 0 0
16-01-2020 11.5 (14:20) 5.3 (00:00) 8.4 16.94 (15:10) 11.39 (15:30) 0.2 0 0 0 0.2
15-01-2020 8.2 (16:30) 4.6 (00:00) 6.4 15.28 (03:20) 8.89 (06:10) 0 0 0 0 0
14-01-2020 6.8 (16:10) -0.6 (-00:0) 3.1 10 (16:10) 6.94 (16:30) 0 0 0 0 0
13-01-2020 7.1 (11:40) 1.1 (00:00) 4.1 10.28 (14:10) 7.5 (14:10) 0 0 0 0 0
12-01-2020 7.6 (15:00) 0.7 (04:40) 4.1 4.72 (13:10) 3.06 (21:50) 0 0 0 0 0
11-01-2020 6.3 (14:40) -1.2 (-00:0) 2.6 3.33 (15:00) 2.22 (22:30) 0.2 0 0.2 0 0
10-01-2020 4.9 (15:30) -0.6 (-00:0) 2.2 11.11 (13:00) 7.22 (12:50) 0 0 0 0 0
09-01-2020 9.9 (16:20) 4.2 (00:00) 7 11.94 (15:30) 8.06 (15:20) 0 0 0 0 0
08-01-2020 12.1 (12:40) 5.5 (00:00) 8.8 4.72 (19:00) 3.33 (19:00) 0 0 0 0 0
07-01-2020 12.1 (14:10) 2.6 (00:00) 7.4 3.89 (01:10) 3.33 (00:50) 0 0 0 0 0
06-01-2020 12.3 (14:40) 3.8 (00:00) 8.1 7.5 (14:50) 5.28 (12:00) 0 0 0 0 0
05-01-2020 7.2 (14:00) 0.6 (00:00) 3.9 2.5 (14:10) 1.67 (06:10) 0.2 0 0.2 0 0
04-01-2020 6.4 (15:50) 0.8 (00:00) 3.6 4.72 (13:50) 2.5 (13:50) 0 0 0 0 0
03-01-2020 6.1 (00:00) 0.5 (00:00) 3.3 6.67 (07:40) 5 (05:50) 0 0 0 0 0
02-01-2020 13.4 (12:20) 6.1 (00:00) 9.7 6.94 (12:40) 5.28 (13:00) 0 0 0 0 0
01-01-2020 14.5 (14:20) 6.7 (00:00) 10.6 3.89 (15:20) 3.33 (20:00) 0 0 0 0 0
31-12-2019 13.6 (12:30) 5.9 (00:00) 9.8 3.89 (13:20) 2.78 (03:50) 0 0 0 0 0
30-12-2019 -- (--) -- (--) -- -- (--) -- (--) -- 0 0 0 --

Gráficas

Temp. máximas Temp. mínimas Temp. medias Precipitaciones Rachas de viento máximas Velocidades máximas media en intervalos de 10 minutos

Datos horarios

Fecha y hora oficial Temperatura (ºC) Velocidad del viento (km/h) Dirección del viento Racha (km/h) Dirección de racha Precipitación (mm) Presión (hPa) Tendencia (hPa) Humedad (%)
2020-01-28 23:00:00 -- -- -- -- -- -- -- -- --
2020-01-28 22:00:00 7.9 28 Sudoeste 43 Sudoeste 0.2 -- -- 100
2020-01-28 21:00:00 7.9 31 Sudoeste 52 Sudoeste 0.4 -- -- 100
2020-01-28 20:00:00 8 31 Sudoeste 49 Sudoeste 0.4 -- -- 100
2020-01-28 19:00:00 8 31 Sudoeste 50 Sudoeste 0 -- -- 100
2020-01-28 18:00:00 8.1 34 Oeste 54 Oeste 0.4 -- -- 100
2020-01-28 17:00:00 8.4 30 Oeste 49 Sudoeste 0.6 -- -- 100
2020-01-28 16:00:00 8.4 33 Oeste 55 Sudoeste 0.4 -- -- 100
2020-01-28 15:00:00 8.3 35 Sudoeste 53 Oeste 0 -- -- 100
2020-01-28 14:00:00 8.3 34 Oeste 52 Oeste 0.2 -- -- 100
2020-01-28 13:00:00 8 34 Sudoeste 49 Sudoeste 0.6 -- -- 100
2020-01-28 12:00:00 7.6 33 Sudoeste 53 Sudoeste 0.2 -- -- 100
2020-01-28 11:00:00 7.3 32 Sudoeste 50 Sudoeste 0.2 -- -- 100
2020-01-28 10:00:00 7.1 27 Sudoeste 49 Sudoeste 0 -- -- 100
2020-01-28 09:00:00 6.9 31 Sudoeste 46 Sudoeste 0.4 -- -- 100
2020-01-28 08:00:00 6.9 32 Sudoeste 54 Sudoeste 0.4 -- -- 100
2020-01-28 07:00:00 6.9 32 Sudoeste 49 Sudoeste 0.8 -- -- 100
2020-01-28 06:00:00 7 33 Sudoeste 51 Sudoeste 0.2 -- -- 100
2020-01-28 05:00:00 7 36 Sudoeste 58 Sudoeste 0.2 -- -- 100
2020-01-28 04:00:00 7.1 37 Sudoeste 57 Sudoeste 0.4 -- -- 100
2020-01-28 03:00:00 6.8 33 Sudoeste 57 Oeste 0.8 -- -- 98
2020-01-28 02:00:00 6.9 39 Sudoeste 62 Sudoeste 0 -- -- 95
2020-01-28 01:00:00 6.7 41 Sudoeste 62 Sudoeste 0 -- -- 93
2020-01-28 00:00:00 6.8 37 Sudoeste 64 Sudoeste 0 -- -- 94
2020-01-27 23:00:00 6.7 37 Sudoeste 56 Sudoeste 0 -- -- 93
2020-01-27 22:00:00 6.3 31 Sudoeste 57 Sudoeste 0 -- -- 92
2020-01-27 21:00:00 6.4 35 Sudoeste 59 Sudoeste 0 -- -- 90
2020-01-27 20:00:00 6.6 41 Sudoeste 64 Sudoeste 0 -- -- 89
2020-01-27 19:00:00 6.5 37 Sudoeste 60 Sudoeste 0 -- -- 89
2020-01-27 18:00:00 6.8 39 Sudoeste 69 Sudoeste 0 -- -- 87
2020-01-27 17:00:00 7.2 41 Sudoeste 69 Sudoeste 0 -- -- 86
2020-01-27 16:00:00 7.9 34 Sudoeste 60 Sudoeste 0 -- -- 77
2020-01-27 15:00:00 7.2 33 Sudoeste 62 Sudoeste 0.2 -- -- 80
2020-01-27 14:00:00 5.9 31 Sudoeste 55 Sudoeste 0.2 -- -- 86
2020-01-27 13:00:00 6.8 31 Sudoeste 54 Sudoeste 0 -- -- 75
2020-01-27 12:00:00 6.9 35 Sudoeste 51 Sudoeste 0 -- -- 70
2020-01-27 11:00:00 5.7 31 Sudoeste 46 Sudoeste 0 -- -- 74
2020-01-27 10:00:00 4.3 27 Sudoeste 41 Sudoeste 0 -- -- 84
2020-01-27 09:00:00 3.1 23 Sudoeste 36 Sur 0 -- -- 89
2020-01-27 08:00:00 3.5 22 Sudoeste 37 Sudoeste 0 -- -- 88
2020-01-27 07:00:00 3.1 21 Sudoeste 36 Sudoeste 0 -- -- 87
2020-01-27 06:00:00 3 27 Sudoeste 40 Sudoeste 0 -- -- 89
2020-01-27 05:00:00 3.2 21 Sudoeste 36 Sudoeste 0 -- -- 86
2020-01-27 04:00:00 3.8 25 Sudoeste 38 Sudoeste 0 -- -- 82
2020-01-27 03:00:00 4.4 21 Sudoeste 33 Sudoeste 0 -- -- 78
2020-01-27 02:00:00 4.6 21 Sudoeste 29 Sudoeste 0 -- -- 78
2020-01-27 01:00:00 4.5 19 Sudoeste 31 Sudoeste 0 -- -- 79
2020-01-27 00:00:00 4.3 18 Sudoeste 28 Sudoeste 0 -- -- 81
2020-01-26 23:00:00 4.1 18 Sudoeste 31 Sudoeste 0 -- -- 83
2020-01-26 22:00:00 4 19 Sudoeste 27 Sudoeste 0 -- -- 85
2020-01-26 21:00:00 3.8 17 Sudoeste 23 Sudoeste 0 -- -- 90
2020-01-26 20:00:00 4 14 Sudoeste 22 Oeste 0 -- -- 87
2020-01-26 19:00:00 3.9 13 Sudoeste 20 Sudoeste 0 -- -- 86
2020-01-26 18:00:00 4.2 13 Oeste 29 Sudoeste 0 -- -- 84
2020-01-26 17:00:00 5.1 19 Oeste 31 Oeste 0 -- -- 81
2020-01-26 16:00:00 5.2 22 Oeste 32 Sudoeste 0 -- -- 82
2020-01-26 15:00:00 6.6 23 Sudoeste 33 Sudoeste 0 -- -- 77
2020-01-26 14:00:00 5.4 16 Oeste 27 Oeste 0 -- -- 85
2020-01-26 13:00:00 4.6 19 Sudoeste 27 Sudoeste 0 -- -- 97
2020-01-26 12:00:00 3.4 15 Sudoeste 25 Sudoeste 0 -- -- 100
2020-01-26 11:00:00 2.7 13 Sudoeste 22 Sudoeste 0 -- -- 100
2020-01-26 10:00:00 2.3 12 Sudoeste 18 Sudoeste 0 -- -- 100
2020-01-26 09:00:00 1.9 11 Sudoeste 16 Sudoeste 0 -- -- 100
2020-01-26 08:00:00 2 8 Sudoeste 15 Sudoeste 0 -- -- 100
2020-01-26 07:00:00 2.3 10 Oeste 17 Oeste 0 -- -- 100
2020-01-26 06:00:00 2.6 11 Oeste 19 Oeste 0 -- -- 100
2020-01-26 05:00:00 2.8 13 Oeste 19 Oeste 0 -- -- 100
2020-01-26 04:00:00 3.1 12 Oeste 21 Oeste 0 -- -- 100
2020-01-26 03:00:00 3.5 11 Oeste 19 Oeste 0 -- -- 100
2020-01-26 02:00:00 3.6 14 Sudoeste 22 Oeste 0 -- -- 99
2020-01-26 01:00:00 3.6 10 Sudoeste 15 Sudoeste 0 -- -- 99
2020-01-26 00:00:00 3.7 7 Sudoeste 12 Sudoeste 0 -- -- 97
2020-01-25 23:00:00 3.7 5 Sudoeste 8 Sudoeste 0.2 -- -- 97
2020-01-25 22:00:00 4.1 5 Sudoeste 9 Sudoeste 0.6 -- -- 97
2020-01-25 21:00:00 4.1 0 Calma 6 Sur 0.2 -- -- 96
2020-01-25 20:00:00 4.2 4 Oeste 22 Oeste 1.8 -- -- 96
2020-01-25 19:00:00 5.2 6 Noroeste 11 Oeste 0 -- -- 93
2020-01-25 18:00:00 6.1 10 Oeste 18 Oeste 0 -- -- 87
2020-01-25 17:00:00 6.9 9 Oeste 15 Oeste 0 -- -- 81
2020-01-25 16:00:00 7.1 5 Oeste 17 Oeste 0 -- -- 77
2020-01-25 15:00:00 6.9 9 Oeste 19 Oeste 0 -- -- 78
2020-01-25 14:00:00 7.2 8 Sudoeste 17 Sudoeste 0 -- -- 77
2020-01-25 13:00:00 7.3 14 Sur 22 Sur 0 -- -- 77
2020-01-25 12:00:00 5.9 10 Sur 26 Sur 0 -- -- 86
2020-01-25 11:00:00 5 14 Sur 20 Sur 0 -- -- 86
2020-01-25 10:00:00 4.2 8 Sudeste 14 Sudeste 0 -- -- 93
2020-01-25 09:00:00 3.4 4 Nordeste 13 Sudeste 0.2 -- -- 93
2020-01-25 08:00:00 3.7 9 Sudeste 15 Sudeste 0 -- -- 89
2020-01-25 07:00:00 3.9 8 Sudeste 14 Sudeste 0 -- -- 86
2020-01-25 06:00:00 3.7 10 Sudeste 18 Sudeste 0 -- -- 83
2020-01-25 05:00:00 2.6 9 Sudeste 16 Sudeste 0 -- -- 84
2020-01-25 04:00:00 3.5 13 Sudeste 18 Sudeste 0 -- -- 82
2020-01-25 03:00:00 3.7 14 Sudeste 21 Sudeste 0 -- -- 81
2020-01-25 02:00:00 4.4 15 Sudeste 19 Sudeste 0 -- -- 81
2020-01-25 01:00:00 4.2 13 Sudeste 18 Sudeste 0 -- -- 82
2020-01-25 00:00:00 3.7 5 Sudeste 10 Sudeste 0 -- -- 87
2020-01-24 23:00:00 3.5 5 Sur 12 Sur 0 -- -- 91
2020-01-24 22:00:00 3.3 9 Sur 13 Sur 0 -- -- 90
2020-01-24 21:00:00 3.5 4 Sudoeste 15 Sudoeste 0 -- -- 89
2020-01-24 20:00:00 4.5 10 Sudoeste 15 Sudoeste 0 -- -- 86
2020-01-24 19:00:00 4.9 6 Sur 10 Sur 0 -- -- 87
2020-01-24 18:00:00 5.5 2 Noroeste 13 Sudoeste 0 -- -- 89
2020-01-24 17:00:00 6.2 7 Sudoeste 19 Sur 0 -- -- 79
2020-01-24 16:00:00 6.3 13 Sur 24 Sudeste 0 -- -- 76
2020-01-24 15:00:00 7 12 Sudeste 25 Sur 0 -- -- 77
2020-01-24 14:00:00 7.2 16 Sur 26 Sur 0 -- -- 74
2020-01-24 13:00:00 6.8 14 Sur 27 Sur 0 -- -- 78
2020-01-24 12:00:00 4.4 18 Sur 50 Sur 0 -- -- 89
2020-01-24 11:00:00 4.6 21 Sur 39 Sur 0 -- -- 89
2020-01-24 10:00:00 4.5 24 Sur 35 Sur 0 -- -- 87
2020-01-24 09:00:00 3.9 20 Sur 30 Sur 0 -- -- 88
2020-01-24 08:00:00 4 18 Sudeste 28 Sudeste 0 -- -- 84
2020-01-24 07:00:00 4.3 18 Sudeste 25 Sudeste 0 -- -- 84
2020-01-24 06:00:00 4.2 18 Sudeste 29 Sudeste 0 -- -- 86
2020-01-24 05:00:00 4.2 15 Sudeste 27 Sudeste 0 -- -- 87
2020-01-24 04:00:00 4.3 16 Sudeste 31 Sudeste 0 -- -- 85
2020-01-24 03:00:00 4.3 19 Sudeste 27 Sudeste 0 -- -- 84
2020-01-24 02:00:00 3.8 20 Sudeste 28 Sudeste 0 -- -- 86
2020-01-24 01:00:00 3.8 20 Sudeste 30 Sudeste 0 -- -- 84
2020-01-24 00:00:00 3.9 18 Sudeste 26 Sudeste 0 -- -- 82
2020-01-23 23:00:00 4 13 Sur 22 Sur 0 -- -- 79
2020-01-23 22:00:00 3.9 19 Sur 29 Sudeste 0 -- -- 80
2020-01-23 21:00:00 4.2 21 Sur 32 Sur 0 -- -- 78
2020-01-23 20:00:00 4.4 20 Sur 28 Sur 0 -- -- 78
2020-01-23 19:00:00 4.5 15 Sur 30 Sur 0 -- -- 78
2020-01-23 18:00:00 5.9 14 Sur 24 Sur 0 -- -- 72
2020-01-23 17:00:00 7.6 10 Sur 20 Sur 0 -- -- 66
2020-01-23 16:00:00 7.1 4 Nordeste 10 Nordeste 0 -- -- 71
2020-01-23 15:00:00 7.4 3 Sudeste 12 Norte 0 -- -- 70
2020-01-23 14:00:00 7.1 9 Norte 19 Noroeste 0 -- -- 74
2020-01-23 13:00:00 7.8 12 Sudoeste 20 Sur 0 -- -- 60
2020-01-23 12:00:00 7 6 Sur 19 Sur 0 -- -- 65
2020-01-23 11:00:00 5.4 6 Este 16 Sudeste 0 -- -- 71
2020-01-23 10:00:00 2.5 4 Este 19 Sudeste 0 -- -- 86
2020-01-23 09:00:00 -0.2 8 Nordeste 17 Este 0 -- -- 90
2020-01-23 08:00:00 0.4 11 Nordeste 31 Nordeste 0 -- -- 91
2020-01-23 07:00:00 1.5 4 Nordeste 20 Sudeste 0 -- -- 82
2020-01-23 06:00:00 1.3 3 Noroeste 19 Nordeste 0 -- -- 86
2020-01-23 05:00:00 1.9 4 Este 27 Sudeste 0 -- -- 83
2020-01-23 04:00:00 2.8 18 Sur 27 Sur 0 -- -- 82
2020-01-23 03:00:00 2.2 22 Sudeste 30 Sudeste 0 -- -- 86
2020-01-23 02:00:00 1.7 18 Sudeste 33 Sudeste 0 -- -- 93
2020-01-23 01:00:00 0.8 13 Este 24 Este 0 -- -- 94
2020-01-23 00:00:00 1.2 15 Este 26 Sudeste 0 -- -- 92
2020-01-22 23:00:00 1.7 14 Sudeste 26 Este 0 -- -- 89
2020-01-22 22:00:00 1.1 19 Este 27 Este 0 -- -- 94
2020-01-22 21:00:00 1.4 10 Nordeste 28 Sudeste 0 -- -- 91
2020-01-22 20:00:00 2.1 19 Este 42 Este 0 -- -- 92
2020-01-22 19:00:00 2 25 Este 36 Este 0 -- -- 91
2020-01-22 18:00:00 2.6 19 Este 37 Este 0 -- -- 88
2020-01-22 17:00:00 3.6 12 Este 30 Este 0 -- -- 85
2020-01-22 16:00:00 3.8 21 Este 34 Este 0 -- -- 86
2020-01-22 15:00:00 4.8 22 Este 35 Nordeste 0 -- -- 81
2020-01-22 14:00:00 5.3 18 Este 37 Este 0 -- -- 83
2020-01-22 13:00:00 4.5 23 Este 41 Este 0 -- -- 86
2020-01-22 12:00:00 3.1 23 Este 44 Este 0 -- -- 90
2020-01-22 11:00:00 2.3 28 Este 49 Este 0 -- -- 94
2020-01-22 10:00:00 1.8 30 Este 48 Este 0 -- -- 97
2020-01-22 09:00:00 1.6 27 Este 53 Este 0 -- -- 97
2020-01-22 08:00:00 1.3 32 Este 54 Este 0 -- -- 98
2020-01-22 07:00:00 1.2 33 Este 60 Este 0 -- -- 98
2020-01-22 06:00:00 0.9 32 Este 60 Este 0 -- -- 98
2020-01-22 05:00:00 0.9 37 Este 61 Este 0 -- -- 97
2020-01-22 04:00:00 1.3 41 Este 60 Este 0.2 -- -- 97
2020-01-22 03:00:00 1.4 31 Este 50 Este 0.2 -- -- 98
2020-01-22 02:00:00 1.5 23 Este 53 Este 0.2 -- -- 98
2020-01-22 01:00:00 2.1 27 Nordeste 52 Nordeste 0 -- -- 96
2020-01-22 00:00:00 2.4 27 Este 60 Este 0 -- -- 95
2020-01-21 23:00:00 2.9 36 Este 66 Este 0 -- -- 94
2020-01-21 22:00:00 3.2 33 Este 63 Este 0 -- -- 94
2020-01-21 21:00:00 3.4 38 Este 64 Este 0.2 -- -- 94
2020-01-21 20:00:00 3.4 34 Nordeste 52 Este 0 -- -- 98
2020-01-21 19:00:00 2.7 28 Nordeste 44 Nordeste 0.6 -- -- 100
2020-01-21 18:00:00 1.5 17 Nordeste 29 Nordeste 0.4 -- -- 99
2020-01-21 17:00:00 2.7 20 Nordeste 45 Este 0.4 -- -- 96
2020-01-21 16:00:00 2.6 32 Nordeste 52 Este 0 -- -- 94
2020-01-21 15:00:00 2.5 33 Nordeste 49 Nordeste 0.2 -- -- 97
2020-01-21 14:00:00 0.9 14 Nordeste 27 Nordeste 0.2 -- -- 100
2020-01-21 13:00:00 -0.1 20 Nordeste 27 Nordeste 0 -- -- 100
2020-01-21 12:00:00 -0.6 17 Nordeste 26 Nordeste 0 -- -- 100
2020-01-21 11:00:00 -1.1 17 Nordeste 36 Nordeste 0 -- -- 99
2020-01-21 10:00:00 -0.6 21 Nordeste 33 Nordeste 0 -- -- 97
2020-01-21 09:00:00 0 18 Nordeste 28 Este 0 -- -- 90
2020-01-21 08:00:00 0.1 18 Nordeste 29 Nordeste 0 -- -- 89
2020-01-21 07:00:00 -0.4 17 Este 25 Este 0 -- -- 83
2020-01-21 06:00:00 -1.1 12 Nordeste 22 Nordeste 0 -- -- 80
2020-01-21 05:00:00 -1.6 16 Nordeste 24 Nordeste 0 -- -- 81
2020-01-21 04:00:00 -2.5 18 Nordeste 25 Nordeste 0 -- -- 86
2020-01-21 03:00:00 -2.7 14 Nordeste 21 Nordeste 0 -- -- 85
2020-01-21 02:00:00 -2.9 16 Nordeste 22 Nordeste 0 -- -- 84
2020-01-21 01:00:00 -3.4 12 Este 17 Nordeste 0 -- -- 85
2020-01-21 00:00:00 -3.2 12 Nordeste 19 Nordeste 0 -- -- 84
2020-01-20 23:00:00 -2 13 Nordeste 23 Nordeste 0 -- -- 77
2020-01-20 22:00:00 -1.2 15 Nordeste 23 Nordeste 0 -- -- 73
2020-01-20 21:00:00 -1.7 12 Este 16 Este 0 -- -- 77
2020-01-20 20:00:00 -1.7 11 Nordeste 23 Nordeste 0 -- -- 77
2020-01-20 19:00:00 -1.4 14 Nordeste 22 Nordeste 0 -- -- 76
2020-01-20 18:00:00 -1.1 14 Nordeste 31 Nordeste 0 -- -- 71
2020-01-20 17:00:00 0.2 16 Nordeste 28 Nordeste 0 -- -- 62
2020-01-20 16:00:00 0.3 19 Nordeste 32 Nordeste 0 -- -- 61
2020-01-20 15:00:00 0.9 20 Nordeste 32 Nordeste 0 -- -- 56
2020-01-20 14:00:00 0.8 19 Nordeste 33 Nordeste 0 -- -- 56
2020-01-20 13:00:00 -0.1 22 Nordeste 35 Nordeste 0 -- -- 53
2020-01-20 12:00:00 -0.9 19 Nordeste 35 Nordeste 0 -- -- 59
2020-01-20 11:00:00 -1.3 20 Nordeste 32 Nordeste 0 -- -- 59
2020-01-20 10:00:00 -3 11 Nordeste 20 Nordeste 0 -- -- 68
2020-01-20 09:00:00 -4.9 15 Nordeste 24 Nordeste 0 -- -- 76
2020-01-20 08:00:00 -5.1 13 Nordeste 24 Nordeste 0 -- -- 80
2020-01-20 07:00:00 -4.8 16 Nordeste 33 Nordeste 0 -- -- 80
2020-01-20 06:00:00 -4.3 19 Nordeste 33 Nordeste 0 -- -- 79
2020-01-20 05:00:00 -4.1 18 Nordeste 33 Norte 0 -- -- 78
2020-01-20 04:00:00 -3.9 16 Nordeste 30 Norte 0 -- -- 78
2020-01-20 03:00:00 -3.6 18 Nordeste 29 Nordeste 0 -- -- 77
2020-01-20 02:00:00 -3.2 16 Nordeste 29 Nordeste 0 -- -- 69
2020-01-20 01:00:00 -2.3 21 Nordeste 42 Nordeste 0 -- -- 63
2020-01-20 00:00:00 -2 26 Nordeste 50 Nordeste 0 -- -- 63
2020-01-19 23:00:00 -1.9 28 Nordeste 47 Nordeste 0 -- -- 62
2020-01-19 22:00:00 -2.1 26 Nordeste 50 Nordeste 0 -- -- 74
2020-01-19 21:00:00 -1.8 32 Nordeste 50 Nordeste 0 -- -- 71
2020-01-19 20:00:00 -1.8 25 Nordeste 49 Norte 0 -- -- 74
2020-01-19 19:00:00 -1.2 33 Nordeste 53 Nordeste 0 -- -- 69
2020-01-19 18:00:00 0 33 Nordeste 64 Nordeste 0 -- -- 63
2020-01-19 17:00:00 1.4 35 Nordeste 65 Nordeste 0 -- -- 63
2020-01-19 16:00:00 2.6 38 Nordeste 61 Norte 0 -- -- 62
2020-01-19 15:00:00 3 39 Nordeste 64 Nordeste 0 -- -- 61
2020-01-19 14:00:00 3 43 Nordeste 68 Nordeste 0 -- -- 64
2020-01-19 13:00:00 1.8 30 Norte 54 Norte 0 -- -- 78
2020-01-19 12:00:00 1.2 30 Norte 54 Norte 0 -- -- 84
2020-01-19 11:00:00 2 31 Nordeste 80 Nordeste 0 -- -- 78
2020-01-19 10:00:00 1.2 26 Norte 50 Nordeste 0 -- -- 95
2020-01-19 09:00:00 0.8 27 Norte 45 Norte 0 -- -- 99
2020-01-19 08:00:00 1.4 21 Norte 37 Norte 0 -- -- 100
2020-01-19 07:00:00 1.3 20 Norte 36 Norte 0 -- -- 100
2020-01-19 06:00:00 1.3 9 Norte 18 Norte 0.2 -- -- 100
2020-01-19 05:00:00 1.3 6 Norte 10 Nordeste 0 -- -- 100
2020-01-19 04:00:00 1.4 6 Norte 9 Norte 0 -- -- 99
2020-01-19 03:00:00 1.6 0 Calma 8 Oeste 0 -- -- 99
2020-01-19 02:00:00 1.8 6 Oeste 13 Oeste 0 -- -- 99
2020-01-19 01:00:00 1.9 10 Oeste 15 Oeste 0 -- -- 99
2020-01-19 00:00:00 2.5 5 Oeste 17 Oeste 0 -- -- 98
2020-01-18 23:00:00 2.6 11 Oeste 21 Oeste 0 -- -- 98
2020-01-18 22:00:00 3.3 13 Oeste 26 Noroeste 0 -- -- 97
2020-01-18 21:00:00 4.2 16 Oeste 27 Oeste 0 -- -- 99
2020-01-18 20:00:00 4.7 19 Noroeste 78 Oeste 7 -- -- 96
2020-01-18 19:00:00 7.9 40 Sudoeste 62 Oeste 0 -- -- 88
2020-01-18 18:00:00 8.6 45 Sudoeste 64 Sudoeste 0 -- -- 85
2020-01-18 17:00:00 8.4 40 Sudoeste 66 Sudoeste 0 -- -- 89
2020-01-18 16:00:00 8.3 30 Sudoeste 48 Sudoeste 0.2 -- -- 89
2020-01-18 15:00:00 7.7 28 Sudoeste 42 Sudoeste 0.2 -- -- 96
2020-01-18 14:00:00 7.9 30 Sudoeste 50 Sudoeste 0 -- -- 94
2020-01-18 13:00:00 6.8 31 Sudoeste 43 Sudoeste 0 -- -- 96
2020-01-18 12:00:00 6 14 Sudoeste 26 Sur 0 -- -- 89
2020-01-18 11:00:00 5.6 13 Sur 25 Sur 0 -- -- 77
2020-01-18 10:00:00 5.1 23 Sudoeste 32 Sudoeste 0 -- -- 77
2020-01-18 09:00:00 4 12 Sudoeste 21 Sudoeste 0 -- -- 85
2020-01-18 08:00:00 3.9 14 Sudoeste 23 Sudoeste 0 -- -- 83
2020-01-18 07:00:00 3.9 15 Sudoeste 28 Sudoeste 0 -- -- 82
2020-01-18 06:00:00 3.7 16 Sur 26 Sudoeste 0 -- -- 79
2020-01-18 05:00:00 3.8 13 Sudoeste 17 Sudoeste 0 -- -- 79
2020-01-18 04:00:00 3.1 9 Sur 12 Sudoeste 0 -- -- 84
2020-01-18 03:00:00 2.3 9 Sudoeste 14 Sudoeste 0 -- -- 85
2020-01-18 02:00:00 2.4 6 Sudoeste 12 Sudoeste 0 -- -- 83
2020-01-18 01:00:00 3.2 7 Sur 19 Sur 0 -- -- 82
2020-01-18 00:00:00 3 8 Sur 15 Sur 0 -- -- 84
2020-01-17 23:00:00 2.9 11 Sudoeste 16 Sudoeste 0 -- -- 85
2020-01-17 22:00:00 2.7 11 Sudoeste 16 Sudoeste 0 -- -- 86
2020-01-17 21:00:00 2.5 11 Sudoeste 15 Sudoeste 0 -- -- 85
2020-01-17 20:00:00 2.8 7 Sudoeste 14 Sudoeste 0 -- -- 84
2020-01-17 19:00:00 3.3 11 Sudoeste 20 Sudoeste 0 -- -- 83
2020-01-17 18:00:00 4.8 14 Oeste 29 Oeste 0 -- -- 74
2020-01-17 17:00:00 6.1 22 Oeste 35 Oeste 0 -- -- 69
2020-01-17 16:00:00 6.4 19 Oeste 35 Oeste 0 -- -- 73
2020-01-17 15:00:00 5.4 26 Oeste 41 Oeste 0 -- -- 76
2020-01-17 14:00:00 5.7 30 Oeste 48 Sudoeste 0 -- -- 80
2020-01-17 13:00:00 5.1 30 Oeste 46 Oeste 0 -- -- 84
2020-01-17 12:00:00 5.1 27 Oeste 45 Sudoeste 0 -- -- 96
2020-01-17 11:00:00 4 27 Sudoeste 44 Sudoeste 0.2 -- -- 99
2020-01-17 10:00:00 3.7 27 Sudoeste 43 Oeste 0 -- -- 99
2020-01-17 09:00:00 3.7 24 Sudoeste 41 Sudoeste 0.4 -- -- 98
2020-01-17 08:00:00 3.5 27 Sudoeste 37 Sudoeste 0.4 -- -- 97
2020-01-17 07:00:00 3.7 26 Sudoeste 41 Sudoeste 0.4 -- -- 95
2020-01-17 06:00:00 4.4 27 Sudoeste 40 Sudoeste 0 -- -- 89
2020-01-17 05:00:00 4.5 30 Sudoeste 42 Sudoeste 0 -- -- 89
2020-01-17 04:00:00 4.9 25 Sudoeste 33 Sudoeste 0 -- -- 86
2020-01-17 03:00:00 5.1 21 Sudoeste 35 Sudoeste 0.2 -- -- 85
2020-01-17 02:00:00 5.3 22 Sudoeste 45 Sudoeste 0 -- -- 85
2020-01-17 01:00:00 5.8 28 Sudoeste 40 Sudoeste 0 -- -- 83
2020-01-17 00:00:00 5.3 25 Sudoeste 49 Sudoeste 0.2 -- -- 85
2020-01-16 23:00:00 6.9 29 Sudoeste 45 Sudoeste 0 -- -- 69
2020-01-16 22:00:00 7.1 29 Sudoeste 48 Sudoeste 0 -- -- 66
2020-01-16 21:00:00 7.6 36 Sudoeste 57 Sudoeste 0 -- -- 62
2020-01-16 20:00:00 7.9 29 Sudoeste 54 Sudoeste 0 -- -- 58
2020-01-16 19:00:00 8 31 Sudoeste 48 Sudoeste 0 -- -- 56
2020-01-16 18:00:00 7.9 18 Sudoeste 55 Sudoeste 0 -- -- 58
2020-01-16 17:00:00 9.5 30 Sudoeste 55 Sudoeste 0 -- -- 53
2020-01-16 16:00:00 10.7 37 Sudoeste 61 Sudoeste 0 -- -- 53
2020-01-16 15:00:00 11.2 37 Sudoeste 57 Sudoeste 0 -- -- 56
2020-01-16 14:00:00 11.1 33 Sudoeste 52 Sudoeste 0 -- -- 65
2020-01-16 13:00:00 10.3 29 Sudoeste 52 Sudoeste 0 -- -- 71
2020-01-16 12:00:00 10.2 27 Sudoeste 44 Sudoeste 0 -- -- 72
2020-01-16 11:00:00 9.4 21 Sudoeste 33 Sur 0 -- -- 69
2020-01-16 10:00:00 8.2 15 Sur 26 Sur 0 -- -- 71
2020-01-16 09:00:00 6.7 14 Sur 20 Sur 0 -- -- 77
2020-01-16 08:00:00 6.1 3 Sudoeste 19 Sur 0 -- -- 80
2020-01-16 07:00:00 6.8 13 Sur 27 Sudoeste 0 -- -- 77
2020-01-16 06:00:00 7.6 18 Sur 28 Sur 0 -- -- 76
2020-01-16 05:00:00 7.6 17 Sur 27 Sudoeste 0 -- -- 76
2020-01-16 04:00:00 7.8 17 Sudoeste 24 Sudoeste 0 -- -- 77
2020-01-16 03:00:00 7.3 16 Sudoeste 22 Sur 0 -- -- 79
2020-01-16 02:00:00 7.1 13 Sur 23 Sur 0 -- -- 80
2020-01-16 01:00:00 7.1 14 Sur 21 Sur 0 -- -- 83
2020-01-16 00:00:00 6.7 13 Sur 21 Sur 0 -- -- 87
2020-01-15 23:00:00 6.7 11 Sudoeste 17 Sudoeste 0 -- -- 85
2020-01-15 22:00:00 7.1 11 Sudoeste 19 Sudoeste 0 -- -- 86
2020-01-15 21:00:00 7.3 13 Sudoeste 19 Sudoeste 0 -- -- 83
2020-01-15 20:00:00 7.4 10 Sudoeste 20 Sudoeste 0 -- -- 83
2020-01-15 19:00:00 7.3 9 Sudoeste 15 Sudoeste 0 -- -- 85
2020-01-15 18:00:00 7.6 9 Sudoeste 23 Oeste 0 -- -- 85
2020-01-15 17:00:00 7.9 15 Sudoeste 40 Sudoeste 0 -- -- 83
2020-01-15 16:00:00 8.1 27 Sudoeste 41 Sudoeste 0 -- -- 79
2020-01-15 15:00:00 7.6 23 Sudoeste 36 Sudoeste 0 -- -- 79
2020-01-15 14:00:00 7.3 22 Sudoeste 38 Sudoeste 0 -- -- 80
2020-01-15 13:00:00 7 21 Sudoeste 37 Sudoeste 0 -- -- 82
2020-01-15 12:00:00 7.8 25 Sudoeste 43 Sudoeste 0 -- -- 71
2020-01-15 11:00:00 6.9 30 Sudoeste 50 Sudoeste 0 -- -- 71
2020-01-15 10:00:00 6.5 28 Sudoeste 46 Sur 0 -- -- 68
2020-01-15 09:00:00 5.7 25 Sudoeste 45 Sudoeste 0 -- -- 66
2020-01-15 08:00:00 5.6 32 Sudoeste 48 Sudoeste 0 -- -- 68
2020-01-15 07:00:00 4.9 29 Sudoeste 48 Sudoeste 0 -- -- 74
2020-01-15 06:00:00 4.7 27 Sudoeste 44 Sudoeste 0 -- -- 76
2020-01-15 05:00:00 4.8 27 Sudoeste 49 Sudoeste 0 -- -- 78
2020-01-15 04:00:00 4.8 29 Sudoeste 55 Sudoeste 0 -- -- 80
2020-01-15 03:00:00 5.3 27 Sudoeste 44 Sudoeste 0 -- -- 76
2020-01-15 02:00:00 5.6 29 Sudoeste 44 Sudoeste 0 -- -- 74
2020-01-15 01:00:00 5.7 27 Sudoeste 40 Sudoeste 0 -- -- 70
2020-01-15 00:00:00 4.8 15 Sudoeste 32 Sur 0 -- -- 70
2020-01-14 23:00:00 5.2 19 Sudoeste 25 Sur 0 -- -- 72
2020-01-14 22:00:00 4.7 15 Sudoeste 23 Sudoeste 0 -- -- 73
2020-01-14 21:00:00 3.9 17 Sur 29 Sur 0 -- -- 80
2020-01-14 20:00:00 4.3 17 Sur 28 Sur 0 -- -- 82
2020-01-14 19:00:00 4.3 15 Sudoeste 22 Sudoeste 0 -- -- 80
2020-01-14 18:00:00 5.3 14 Sudoeste 21 Sudoeste 0 -- -- 75
2020-01-14 17:00:00 6.7 15 Sudoeste 36 Sudoeste 0 -- -- 71
2020-01-14 16:00:00 6.5 23 Sudoeste 36 Sudoeste 0 -- -- 68
2020-01-14 15:00:00 6.5 19 Sudoeste 31 Sudoeste 0 -- -- 70
2020-01-14 14:00:00 5.6 15 Sudoeste 32 Sudoeste 0 -- -- 73
2020-01-14 13:00:00 5.3 18 Sudoeste 30 Sudoeste 0 -- -- 75
2020-01-14 12:00:00 4.2 15 Sudoeste 30 Sudoeste 0 -- -- 78
2020-01-14 11:00:00 1.4 18 Sudoeste 27 Sudoeste 0 -- -- 92
2020-01-14 10:00:00 0 14 Sudoeste 31 Oeste 0 -- -- 97
2020-01-14 09:00:00 -0.3 16 Sudoeste 28 Sudoeste 0 -- -- 98
2020-01-14 08:00:00 -0.3 15 Sudoeste 24 Sudoeste 0 -- -- 98
2020-01-14 07:00:00 -0.4 13 Sudoeste 19 Sudoeste 0 -- -- 97
2020-01-14 06:00:00 -0.2 12 Sudoeste 20 Sudoeste 0 -- -- 95
2020-01-14 05:00:00 0.4 12 Sudoeste 20 Sudoeste 0 -- -- 93
2020-01-14 04:00:00 0.1 10 Sudoeste 28 Sudoeste 0 -- -- 88
2020-01-14 03:00:00 -0.2 23 Sudoeste 32 Sudoeste 0 -- -- 88
2020-01-14 02:00:00 0 20 Sudoeste 28 Sudoeste 0 -- -- 87
2020-01-14 01:00:00 0.5 20 Sudoeste 36 Sudoeste 0 -- -- 81
2020-01-14 00:00:00 1.1 21 Sudoeste 36 Sudoeste 0 -- -- 73
2020-01-13 23:00:00 1.8 16 Sudoeste 22 Sudoeste 0 -- -- 69
2020-01-13 22:00:00 2.7 10 Sudoeste 13 Sudoeste 0 -- -- 53
2020-01-13 21:00:00 3.2 7 Sudoeste 14 Sudoeste 0 -- -- 46
2020-01-13 20:00:00 3.3 9 Sudoeste 14 Sudoeste 0 -- -- 44
2020-01-13 19:00:00 3.8 9 Sudoeste 20 Sur 0 -- -- 48
2020-01-13 18:00:00 5 8 Sudoeste 19 Sudoeste 0 -- -- 52
2020-01-13 17:00:00 6.5 17 Sudoeste 30 Sudoeste 0 -- -- 54
2020-01-13 16:00:00 5.6 18 Sudoeste 35 Sudoeste 0 -- -- 61
2020-01-13 15:00:00 5.8 21 Sudoeste 37 Sudoeste 0 -- -- 60
2020-01-13 14:00:00 6.8 24 Sudoeste 36 Sudoeste 0 -- -- 50
2020-01-13 13:00:00 6.6 24 Sudoeste 32 Sudoeste 0 -- -- 42
2020-01-13 12:00:00 6.3 19 Oeste 32 Sudoeste 0 -- -- 48
2020-01-13 11:00:00 6.7 17 Sudoeste 25 Oeste 0 -- -- 42
2020-01-13 10:00:00 4.3 9 Sudoeste 15 Sudoeste 0 -- -- 55
2020-01-13 09:00:00 3.7 9 Sudoeste 15 Sudoeste 0 -- -- 50
2020-01-13 08:00:00 3.9 8 Sudoeste 18 Sudoeste 0 -- -- 41
2020-01-13 07:00:00 2.5 9 Sudoeste 13 Oeste 0 -- -- 44
2020-01-13 06:00:00 2.7 7 Sudoeste 9 Sudoeste 0 -- -- 46
2020-01-13 05:00:00 2.1 0 Calma -- -- 0 -- -- 56
2020-01-13 04:00:00 2.7 0 Calma 0 Calma 0 -- -- 50
2020-01-13 03:00:00 2.3 0 Calma 0 Calma 0 -- -- 58
2020-01-13 02:00:00 2.8 0 Calma 7 Sudoeste 0 -- -- 56
2020-01-13 01:00:00 3.2 6 Sudoeste 9 Sudoeste 0 -- -- 49
2020-01-13 00:00:00 2.9 7 Sudoeste 9 Sudoeste 0 -- -- 51
2020-01-12 23:00:00 2.9 9 Sudoeste 12 Sudoeste 0 -- -- 48
2020-01-12 22:00:00 3.1 10 Sudoeste 13 Sudoeste 0 -- -- 46
2020-01-12 21:00:00 3.1 4 Sudoeste 5 Sur 0 -- -- 54
2020-01-12 20:00:00 2.9 0 Calma 4 Sudeste 0 -- -- 70
2020-01-12 19:00:00 3 3 Sudeste 5 Noroeste 0 -- -- 65
2020-01-12 18:00:00 4.2 4 Noroeste 10 Noroeste 0 -- -- 58
2020-01-12 17:00:00 6.9 3 Norte 8 Norte 0 -- -- 48
2020-01-12 16:00:00 7 6 Noroeste 12 Noroeste 0 -- -- 46
2020-01-12 15:00:00 7.6 7 Noroeste 12 Noroeste 0 -- -- 48
2020-01-12 14:00:00 6.7 8 Oeste 17 Noroeste 0 -- -- 48
2020-01-12 13:00:00 6.2 9 Oeste 15 Oeste 0 -- -- 46
2020-01-12 12:00:00 5.6 5 Noroeste 9 Oeste 0 -- -- 52
2020-01-12 11:00:00 5.1 5 Oeste 9 Oeste 0 -- -- 58
2020-01-12 10:00:00 3.5 7 Sudoeste 10 Sudoeste 0 -- -- 41
2020-01-12 09:00:00 1.3 9 Sudoeste 10 Sudoeste 0 -- -- 66
2020-01-12 08:00:00 0.9 6 Sudoeste 7 Sudoeste 0 -- -- 60
2020-01-12 07:00:00 1.5 5 Sudoeste 7 Sudoeste 0 -- -- 58
2020-01-12 06:00:00 1.7 6 Sudoeste 9 Sur 0 -- -- 59
2020-01-12 05:00:00 1.1 8 Sur 9 Sur 0 -- -- 40
2020-01-12 04:00:00 1.2 6 Sudoeste 8 Sudoeste 0 -- -- 37
2020-01-12 03:00:00 1.4 6 Sudoeste 8 Sudoeste 0 -- -- 34
2020-01-12 02:00:00 1.7 6 Sudoeste 8 Sudoeste 0 -- -- 32
2020-01-12 01:00:00 2 6 Sudoeste 7 Sudoeste 0 -- -- 33
2020-01-12 00:00:00 2 7 Sudoeste 8 Sudoeste 0 -- -- 34
2020-01-11 23:00:00 1.7 6 Sudoeste 9 Sudoeste 0 -- -- 35
2020-01-11 22:00:00 2.1 6 Sudoeste 8 Sudoeste 0 -- -- 33
2020-01-11 21:00:00 1.9 3 Sur 5 Sur 0 -- -- 38
2020-01-11 20:00:00 1.8 3 Sur 3 Sur 0 -- -- 52
2020-01-11 19:00:00 1.4 0 Calma -- -- 0 -- -- 64
2020-01-11 18:00:00 3.7 0 Calma 4 Oeste 0 -- -- 77
2020-01-11 17:00:00 4.2 3 Oeste 9 Oeste 0 -- -- 78
2020-01-11 16:00:00 5 5 Oeste 10 Oeste 0 -- -- 73
2020-01-11 15:00:00 6.1 6 Noroeste 12 Noroeste 0 -- -- 61
2020-01-11 14:00:00 5.5 4 Noroeste 8 Noroeste 0 -- -- 65
2020-01-11 13:00:00 3.8 4 Noroeste 8 Norte 0 -- -- 83
2020-01-11 12:00:00 2.9 2 Noroeste 7 Noroeste 0 -- -- 88
2020-01-11 11:00:00 3 0 Calma 3 Noroeste 0 -- -- 77
2020-01-11 10:00:00 2.1 0 Calma 3 Sudoeste 0.2 -- -- 78
2020-01-11 09:00:00 0.8 3 Sudoeste 6 Sur 0 -- -- 81
2020-01-11 08:00:00 0.1 5 Sur 6 Sur 0 -- -- 87
2020-01-11 07:00:00 0.1 4 Sudoeste 5 Sur 0 -- -- 89
2020-01-11 06:00:00 0.3 2 Sudoeste 4 Sur 0 -- -- 93
2020-01-11 05:00:00 -0.3 4 Sudoeste 5 Sur 0 -- -- 97
2020-01-11 04:00:00 -0.9 0 Calma 6 Sudoeste 0 -- -- 99
2020-01-11 03:00:00 -0.9 6 Sudoeste 6 Sudoeste 0 -- -- 97
2020-01-11 02:00:00 -0.2 0 Calma 4 Sur 0 -- -- 99
2020-01-11 01:00:00 0.3 0 Calma 8 Sudeste 0 -- -- 99
2020-01-11 00:00:00 -0.6 4 Este 7 Este 0 -- -- 98
2020-01-10 23:00:00 -0.1 5 Este 12 Este 0 -- -- 99
2020-01-10 22:00:00 0.3 10 Este 18 Este 0 -- -- 99
2020-01-10 21:00:00 0.4 6 Nordeste 17 Norte 0 -- -- 96
2020-01-10 20:00:00 1 8 Nordeste 15 Norte 0 -- -- 93
2020-01-10 19:00:00 1.7 5 Norte 16 Norte 0 -- -- 89
2020-01-10 18:00:00 3.1 9 Norte 24 Norte 0 -- -- 84
2020-01-10 17:00:00 4.4 14 Norte 27 Norte 0 -- -- 80
2020-01-10 16:00:00 4.6 18 Norte 31 Norte 0 -- -- 75
2020-01-10 15:00:00 4.6 16 Norte 37 Norte 0 -- -- 74
2020-01-10 14:00:00 4.2 17 Norte 32 Norte 0 -- -- 77
2020-01-10 13:00:00 3.4 23 Nordeste 40 Norte 0 -- -- 79
2020-01-10 12:00:00 2.5 18 Norte 30 Norte 0 -- -- 84
2020-01-10 11:00:00 2 14 Nordeste 28 Nordeste 0 -- -- 85
2020-01-10 10:00:00 0.7 11 Nordeste 18 Este 0 -- -- 95
2020-01-10 09:00:00 0.1 6 Sudeste 9 Este 0 -- -- 97
2020-01-10 08:00:00 0.2 0 Calma 10 Oeste 0 -- -- 96
2020-01-10 07:00:00 0.3 3 Sudoeste 12 Oeste 0 -- -- 96
2020-01-10 06:00:00 0.2 7 Sudoeste 13 Sudoeste 0 -- -- 95
2020-01-10 05:00:00 -0.1 8 Sudoeste 14 Sudoeste 0 -- -- 95
2020-01-10 04:00:00 -0.3 11 Sudoeste 20 Sudoeste 0 -- -- 94
2020-01-10 03:00:00 0 12 Sudoeste 24 Sudoeste 0 -- -- 95
2020-01-10 02:00:00 1.1 15 Oeste 31 Oeste 0 -- -- 96
2020-01-10 01:00:00 3 18 Oeste 35 Oeste 0 -- -- 98
2020-01-10 00:00:00 4.3 20 Oeste 32 Oeste 0 -- -- 99
2020-01-09 23:00:00 5.4 22 Oeste 41 Oeste 0 -- -- 99
2020-01-09 22:00:00 6.4 25 Oeste 40 Oeste 0 -- -- 99
2020-01-09 21:00:00 7 26 Sudoeste 37 Sudoeste 0 -- -- 97
2020-01-09 20:00:00 7.4 25 Sudoeste 37 Sudoeste 0 -- -- 97
2020-01-09 19:00:00 7.3 24 Sudoeste 39 Sudoeste 0 -- -- 97
2020-01-09 18:00:00 8.1 25 Sudoeste 39 Sudoeste 0 -- -- 90
2020-01-09 17:00:00 9.5 19 Sudoeste 40 Sur 0 -- -- 79
2020-01-09 16:00:00 9.3 23 Sudoeste 43 Sudoeste 0 -- -- 77
2020-01-09 15:00:00 8.9 25 Sudoeste 36 Sudoeste 0 -- -- 80
2020-01-09 14:00:00 7.8 25 Sudoeste 36 Sudoeste 0 -- -- 82
2020-01-09 13:00:00 8.5 26 Sudoeste 35 Sudoeste 0 -- -- 86
2020-01-09 12:00:00 7.2 24 Sudoeste 33 Sudoeste 0 -- -- 86
2020-01-09 11:00:00 7.5 16 Sudoeste 23 Sudoeste 0 -- -- 80
2020-01-09 10:00:00 6 10 Sudoeste 17 Sudoeste 0 -- -- 74
2020-01-09 09:00:00 4.4 9 Oeste 16 Sudoeste 0 -- -- 81
2020-01-09 08:00:00 5.2 12 Sudoeste 16 Sudoeste 0 -- -- 75
2020-01-09 07:00:00 4.2 10 Sudoeste 13 Oeste 0 -- -- 88
2020-01-09 06:00:00 6.3 11 Oeste 18 Sudoeste 0 -- -- 75
2020-01-09 05:00:00 6.7 12 Sudoeste 17 Sudoeste 0 -- -- 83
2020-01-09 04:00:00 5.7 11 Sur 13 Sudoeste 0 -- -- 86
2020-01-09 03:00:00 5.5 9 Sudoeste 10 Sudoeste 0 -- -- 79
2020-01-09 02:00:00 6.1 0 Calma -- -- 0 -- -- 76
2020-01-09 01:00:00 6.3 4 Sudoeste 6 Sudoeste 0 -- -- 75
2020-01-09 00:00:00 6.6 2 Sudoeste 3 Noroeste 0 -- -- 79
2020-01-08 23:00:00 7.5 3 Sudoeste 5 Sur 0 -- -- 74
2020-01-08 22:00:00 6.9 0 Calma 4 Este 0 -- -- 78
2020-01-08 21:00:00 6.9 0 Calma 9 Oeste 0 -- -- 81
2020-01-08 20:00:00 7.9 3 Oeste 16 Sudeste 0 -- -- 72
2020-01-08 19:00:00 8.2 12 Sudeste 17 Sudeste 0 -- -- 72
2020-01-08 18:00:00 7.8 4 Este 6 Nordeste 0 -- -- 77
2020-01-08 17:00:00 10.1 3 Norte 6 Norte 0 -- -- 66
2020-01-08 16:00:00 11 4 Noroeste 9 Oeste 0 -- -- 59
2020-01-08 15:00:00 10.2 5 Oeste 15 Oeste 0 -- -- 58
2020-01-08 14:00:00 10.6 9 Oeste 14 Oeste 0 -- -- 60
2020-01-08 13:00:00 11.1 8 Oeste 12 Oeste 0 -- -- 59
2020-01-08 12:00:00 10.7 4 Oeste 10 Sudoeste 0 -- -- 62
2020-01-08 11:00:00 9.6 3 Oeste 8 Oeste 0 -- -- 62
2020-01-08 10:00:00 7.2 0 Calma 4 Sudeste 0 -- -- 39
2020-01-08 09:00:00 5.6 2 Sudoeste 5 Oeste 0 -- -- 30
2020-01-08 08:00:00 6.2 5 Oeste 6 Sudoeste 0 -- -- 28
2020-01-08 07:00:00 6.3 4 Sudoeste 5 Sudoeste 0 -- -- 28
2020-01-08 06:00:00 6.5 5 Oeste 6 Sudoeste 0 -- -- 23
2020-01-08 05:00:00 7.1 0 Calma -- -- 0 -- -- 20
2020-01-08 04:00:00 7.7 0 Calma 7 Sur 0 -- -- 18
2020-01-08 03:00:00 7.5 6 Sudoeste 8 Sudoeste 0 -- -- 20
2020-01-08 02:00:00 7.3 5 Sudoeste 7 Sudoeste 0 -- -- 20
2020-01-08 01:00:00 6.5 5 Sudoeste 8 Sur 0 -- -- 19
2020-01-08 00:00:00 5.9 3 Sudoeste 9 Sur 0 -- -- 21
2020-01-07 23:00:00 5.1 8 Sudoeste 9 Sudoeste 0 -- -- 31
2020-01-07 22:00:00 5.5 5 Sudoeste 9 Sudoeste 0 -- -- 29
2020-01-07 21:00:00 6.2 5 Sudoeste 8 Sudoeste 0 -- -- 32
2020-01-07 20:00:00 7.6 6 Sudoeste 10 Sudoeste 0 -- -- 22
2020-01-07 19:00:00 6.8 9 Sudoeste 11 Sudoeste 0 -- -- 27
2020-01-07 18:00:00 7.5 4 Sudoeste 7 Noroeste 0 -- -- 55
2020-01-07 17:00:00 10.1 6 Noroeste 13 Oeste 0 -- -- 46
2020-01-07 16:00:00 11.8 8 Oeste 12 Oeste 0 -- -- 41
2020-01-07 15:00:00 10.7 8 Oeste 12 Oeste 0 -- -- 45
2020-01-07 14:00:00 11.6 3 Oeste 12 Oeste 0 -- -- 39
2020-01-07 13:00:00 10.9 8 Noroeste 11 Noroeste 0 -- -- 40
2020-01-07 12:00:00 9.7 2 Noroeste 5 Noroeste 0 -- -- 24
2020-01-07 11:00:00 8.4 0 Calma 6 Sudoeste 0 -- -- 28
2020-01-07 10:00:00 6.6 5 Sudoeste 8 Sudoeste 0 -- -- 27
2020-01-07 09:00:00 3.9 7 Sudoeste 8 Sudoeste 0 -- -- 26
2020-01-07 08:00:00 4.6 3 Norte 5 Norte 0 -- -- 30
2020-01-07 07:00:00 4.4 3 Nordeste 7 Sudeste 0 -- -- 23
2020-01-07 06:00:00 4.7 5 Nordeste 10 Sudoeste 0 -- -- 26
2020-01-07 05:00:00 6.9 6 Sudoeste 8 Sudoeste 0 -- -- 18
2020-01-07 04:00:00 6.4 0 Calma 9 Oeste 0 -- -- 21
2020-01-07 03:00:00 6.5 5 Sudoeste 10 Sur 0 -- -- 23
2020-01-07 02:00:00 2.8 3 Sudoeste 14 Norte 0 -- -- 44
2020-01-07 01:00:00 5.9 10 Sudoeste 14 Sudoeste 0 -- -- 29
2020-01-07 00:00:00 4.8 5 Nordeste 12 Sur 0 -- -- 33
2020-01-06 23:00:00 6.3 9 Sur 13 Sudoeste 0 -- -- 30
2020-01-06 22:00:00 6.3 11 Sudoeste 15 Sudoeste 0 -- -- 26
2020-01-06 21:00:00 6 12 Sudoeste 14 Sudoeste 0 -- -- 29
2020-01-06 20:00:00 4.8 9 Sudoeste 12 Sudoeste 0 -- -- 38
2020-01-06 19:00:00 4.9 8 Sudoeste 13 Oeste 0 -- -- 57
2020-01-06 18:00:00 6.9 9 Sudoeste 18 Oeste 0 -- -- 47
2020-01-06 17:00:00 10.5 14 Sudoeste 21 Sudoeste 0 -- -- 35
2020-01-06 16:00:00 11.2 14 Sudoeste 24 Oeste 0 -- -- 33
2020-01-06 15:00:00 11.9 16 Sudoeste 27 Sudoeste 0 -- -- 27
2020-01-06 14:00:00 11.8 15 Sudoeste 24 Sudoeste 0 -- -- 26
2020-01-06 13:00:00 10 15 Sudoeste 25 Sudoeste 0 -- -- 33
2020-01-06 12:00:00 8.9 19 Oeste 26 Oeste 0 -- -- 35
2020-01-06 11:00:00 9.8 11 Sudoeste 21 Sudoeste 0 -- -- 33
2020-01-06 10:00:00 7.5 12 Sudoeste 18 Sudoeste 0 -- -- 39